Bei Facebook empfehlenBei Twitter postenGoogle plusPinterest

Das Wetter im Erzgebirge am 03.06.2015

Wetter und Klima am 03.06.2015 Holzhau im Erzgebirge (630m ü.NN)
Letzte gemessene Temperatur und Uhrzeit der Messung23:45:00 Uhr9.60 °C
Temperatur (Maximum / Höchstwert) und Uhrzeit der Messung15:15:00 Uhr26.50 °C
Temperatur (Minimum / Tiefstwert) und Uhrzeit der Messung23:45:009.60 °C
Errechneter Absolutwert der Temperaturschwankungen zwischen Tmin und Tmax des Tages16.90 K
Errechnete Tagesmitteltemperatur18.17917 °C
Gesamt - Niederschlag des Tages (in flüssiger Form)0.00 Liter / m²
Luftdruck (Maximum / Höchstwert) und Zeitpunkt der Messung23:45:00 Uhr1024.00 hPa
Luftdruck (Minimum / Tiefstwert) und Zeitpunkt der Messung01:30:00 Uhr1016.50 hPa
Errechneter Absolutwert der Luftdruckschwankungen des Tages7.50 hPa
Höchste gemessene Windgeschwindigkeit und Uhrzeit der Messung09:00:00 Uhr19.80 km/h
Errechnete Windhäufigkeit in Relation zu den Messwerten des Tages28.12500 %
Niedrigste Windkühle (Windchill) und Zeitpunkt der Messung23:45:00 Uhr9.60 °C
Taupunkt (Maximum / Höchstwert) und Uhrzeit der Messung17:15:00 Uhr14.50 °C
Taupunkt (Minimum / Tiefstwert) und Uhrzeit der Messung23:45:005.00 °C
Anzahl der automatisch eingelesenen Messwerte 96

Detaillierte Wetter- und Klima- Messwerte für den 03.06.2015 in Holzhau im Erzgebirge (630m ü.NN)
ZeitTemperaturLuftdruckRel. LuftfeuchteWindWindrichtungWindchillTaupunktNiederschlag l/m²
23:45:009.60 °C1024.00 hPa73.00 %5.00 °C 
23:30:0010.30 °C1023.70 hPa72.00 %5.50 °C 
23:15:0011.00 °C1023.80 hPa70.00 %5.70 °C 
23:00:0011.80 °C1023.60 hPa70.00 %6.50 °C 
22:45:0012.00 °C1023.60 hPa70.00 %6.70 °C 
22:30:0012.40 °C1023.40 hPa69.00 %6.90 °C 
22:15:0012.90 °C1023.00 hPa69.00 %7.40 °C 
22:00:0013.40 °C1023.00 hPa69.00 %7.80 °C 
21:45:0013.90 °C1022.70 hPa68.00 %8.10 °C 
21:30:0014.40 °C1022.60 hPa67.00 %8.40 °C 
21:15:0014.90 °C1022.30 hPa66.00 %8.60 °C 
21:00:0015.40 °C1022.00 hPa65.00 %8.90 °C 
20:45:0016.30 °C1021.80 hPa64.00 %9.50 °C 
20:30:0017.00 °C1021.50 hPa64.00 %8.28 km/hWSW17.20 °C10.10 °C 
20:15:0017.80 °C1021.10 hPa64.00 %10.90 °C 
20:00:0018.40 °C1020.80 hPa63.00 %4.32 km/hWNW18.40 °C11.20 °C 
19:45:0019.30 °C1020.50 hPa62.00 %11.80 °C 
19:30:0019.80 °C1020.30 hPa61.00 %4.68 km/hWSW19.80 °C12.10 °C 
19:15:0020.40 °C1020.10 hPa60.00 %12.40 °C 
19:00:0020.60 °C1019.90 hPa59.00 %12.30 °C 
18:45:0021.00 °C1019.90 hPa58.00 %2.16 km/hWNW21.00 °C12.40 °C 
18:30:0022.10 °C1019.60 hPa55.00 %12.60 °C 
18:15:0023.40 °C1019.30 hPa53.00 %13.30 °C 
18:00:0024.40 °C1019.00 hPa51.00 %13.60 °C 
17:45:0024.60 °C1019.00 hPa53.00 %14.40 °C 
17:30:0024.90 °C1019.10 hPa52.00 %14.40 °C 
17:15:0025.40 °C1019.00 hPa51.00 %14.50 °C 
17:00:0025.60 °C1019.00 hPa50.00 %14.40 °C 
16:45:0025.40 °C1019.00 hPa49.00 %13.90 °C 
16:30:0025.20 °C1018.70 hPa44.00 %12.10 °C 
16:15:0025.80 °C1018.60 hPa41.00 %6.48 km/hW27.60 °C11.60 °C 
16:00:0026.10 °C1018.60 hPa40.00 %10.80 km/hWNW27.80 °C11.50 °C 
15:45:0026.10 °C1018.40 hPa41.00 %10.44 km/hW27.90 °C11.80 °C 
15:30:0026.10 °C1018.30 hPa40.00 %9.36 km/hWSW27.90 °C11.50 °C 
15:15:0026.50 °C1018.50 hPa40.00 %9.36 km/hNW28.40 °C11.80 °C 
15:00:0026.50 °C1018.30 hPa41.00 %9.36 km/hW28.40 °C12.20 °C 
14:45:0026.30 °C1018.20 hPa42.00 %6.48 km/hWNW28.20 °C12.40 °C 
14:30:0025.90 °C1018.30 hPa41.00 %7.20 km/hNW27.70 °C11.60 °C 
14:15:0025.60 °C1018.00 hPa41.00 %5.40 km/hSW27.40 °C11.40 °C 
14:00:0026.10 °C1018.10 hPa41.00 %7.56 km/hWSW27.90 °C11.80 °C 
13:45:0026.40 °C1018.00 hPa42.00 %16.92 km/hNW28.10 °C12.50 °C 
13:30:0026.40 °C1018.00 hPa41.00 %4.68 km/hNW26.40 °C12.10 °C 
13:15:0026.40 °C1017.90 hPa44.00 %5.04 km/hNW28.40 °C13.20 °C 
13:00:0026.30 °C1018.00 hPa44.00 %6.12 km/hNNW28.20 °C13.10 °C 
12:45:0024.80 °C1018.00 hPa46.00 %12.40 °C 
12:30:0025.80 °C1018.00 hPa45.00 %4.32 km/hNNW25.80 °C13.00 °C 
12:15:0025.80 °C1018.20 hPa45.00 %13.00 °C 
12:00:0026.20 °C1017.70 hPa45.00 %13.30 °C 
11:45:0024.60 °C1018.10 hPa48.00 %8.28 km/hWNW26.10 °C12.90 °C 
11:30:0024.60 °C1018.10 hPa48.00 %9.72 km/hWNW26.10 °C12.90 °C 
11:15:0023.80 °C1018.00 hPa48.00 %12.10 °C 
11:00:0023.40 °C1017.80 hPa47.00 %11.50 °C 
10:45:0024.90 °C1017.90 hPa45.00 %12.20 °C 
10:30:0024.80 °C1017.80 hPa45.00 %8.64 km/hSSW26.40 °C12.10 °C 
10:15:0023.60 °C1017.70 hPa48.00 %12.00 °C 
10:00:0023.00 °C1017.60 hPa49.00 %7.92 km/hSW24.30 °C11.70 °C 
09:45:0022.40 °C1017.50 hPa52.00 %12.10 °C 
09:30:0022.10 °C1017.60 hPa52.00 %11.80 °C 
09:15:0021.90 °C1017.50 hPa51.00 %11.30 °C 
09:00:0021.60 °C1017.60 hPa51.00 %19.80 km/hW22.00 °C11.00 °C 
08:45:0021.60 °C1017.60 hPa53.00 %10.08 km/hW22.50 °C11.60 °C 
08:30:0021.80 °C1017.40 hPa53.00 %9.36 km/hWNW22.80 °C11.80 °C 
08:15:0022.20 °C1017.40 hPa52.00 %11.90 °C 
08:00:0022.30 °C1017.40 hPa52.00 %12.00 °C 
07:45:0021.90 °C1017.40 hPa56.00 %12.70 °C 
07:30:0020.20 °C1017.30 hPa63.00 %12.90 °C 
07:15:0016.80 °C1017.20 hPa78.00 %7.56 km/hW17.10 °C12.90 °C 
07:00:0011.80 °C1017.20 hPa86.00 %9.50 °C 
06:45:0011.00 °C1017.00 hPa85.00 %8.60 °C 
06:30:0010.90 °C1017.00 hPa86.00 %8.70 °C 
06:15:0010.30 °C1017.00 hPa86.00 %8.10 °C 
06:00:0010.30 °C1016.90 hPa86.00 %8.10 °C 
05:45:009.90 °C1017.00 hPa86.00 %7.70 °C 
05:30:009.90 °C1017.10 hPa85.00 %7.50 °C 
05:15:009.90 °C1016.90 hPa85.00 %7.50 °C 
05:00:009.90 °C1016.90 hPa85.00 %7.50 °C 
04:45:0010.10 °C1016.80 hPa85.00 %7.70 °C 
04:30:009.90 °C1016.70 hPa85.00 %7.50 °C 
04:15:009.90 °C1016.80 hPa84.00 %7.30 °C 
04:00:009.90 °C1016.80 hPa84.00 %7.30 °C 
03:45:0010.00 °C1016.70 hPa83.00 %7.30 °C 
03:30:0010.20 °C1016.80 hPa83.00 %7.40 °C 
03:15:0010.30 °C1016.90 hPa83.00 %7.50 °C 
03:00:0010.50 °C1016.80 hPa82.00 %7.60 °C 
02:45:0010.80 °C1016.90 hPa82.00 %7.90 °C 
02:30:0010.70 °C1016.70 hPa82.00 %7.80 °C 
02:15:0010.80 °C1016.80 hPa82.00 %7.90 °C 
02:00:0011.10 °C1016.60 hPa81.00 %8.00 °C 
01:45:0011.10 °C1016.60 hPa81.00 %8.00 °C 
01:30:0010.90 °C1016.50 hPa82.00 %8.00 °C 
01:15:0010.70 °C1016.60 hPa82.00 %7.80 °C 
01:00:0010.70 °C1016.60 hPa81.00 %7.60 °C 
00:45:0010.90 °C1016.60 hPa81.00 %7.80 °C 
00:30:0010.80 °C1016.50 hPa80.00 %7.50 °C 
00:15:0010.90 °C1016.60 hPa79.00 %7.40 °C 
00:00:0010.90 °C1016.50 hPa79.00 %7.40 °C 

Permanenter Link zu dieser Seite: Wetter im Erzgebirge am 03.06.2015
Performance-Info: Die Erstellung der Seite / Statistik(en) / Tabelle(n) erforderte 5 Datenbankserver-Abfrage(n) und dauerte 121 Millisekunden. (Dieser Messwert ist von der Gesamt-Auslastung des Servers abhängig.)
Erzgebirge - Wetter | Erzgebirge - Wetter (Mobilgeräte) | Komplette Klimadatenbank